createdAt,value
2022-10-17T00:01:48.544Z,96985.81
2022-10-17T00:04:15.186Z,96989.44
2022-10-17T00:06:41.642Z,96987.81
2022-10-17T00:09:08.180Z,96987.81
2022-10-17T00:11:34.525Z,96985.50
2022-10-17T00:14:00.948Z,96984.00
2022-10-17T00:16:28.658Z,96990.63
2022-10-17T00:18:55.022Z,96984.69
2022-10-17T00:21:21.829Z,96995.91
2022-10-17T00:23:48.386Z,96995.78
2022-10-17T00:26:15.232Z,96983.91
2022-10-17T00:28:41.714Z,96997.91
2022-10-17T00:31:08.098Z,96993.66
2022-10-17T00:33:35.512Z,96994.97
2022-10-17T00:36:02.670Z,96990.03
2022-10-17T00:38:29.055Z,96999.59
2022-10-17T00:43:27.063Z,96991.66
2022-10-17T00:45:53.550Z,96999.09
2022-10-17T00:48:23.345Z,97001.09
2022-10-17T00:50:50.254Z,97007.34
2022-10-17T00:53:17.146Z,97003.88
2022-10-17T00:55:50.890Z,97000.59
2022-10-17T00:58:18.074Z,97001.41
2022-10-17T01:00:46.080Z,96996.13
2022-10-17T01:03:12.532Z,96993.31
2022-10-17T01:05:39.510Z,96988.88
2022-10-17T01:08:06.074Z,96994.66
2022-10-17T01:10:43.829Z,96989.72
2022-10-17T01:13:19.224Z,96991.88
2022-10-17T01:16:04.279Z,97001.09
2022-10-17T01:18:36.646Z,96995.31
2022-10-17T01:21:15.256Z,96993.69
2022-10-17T01:23:41.608Z,97004.25
2022-10-17T01:26:26.722Z,96994.84
2022-10-17T01:29:02.294Z,96992.53
2022-10-17T01:31:34.828Z,97000.94
2022-10-17T01:34:06.119Z,97004.56
2022-10-17T01:36:44.437Z,97001.59
2022-10-17T01:39:14.506Z,97007.19
2022-10-17T01:41:40.832Z,97006.53
2022-10-17T01:44:09.944Z,97009.16
2022-10-17T01:46:37.472Z,97004.41
2022-10-17T01:49:05.407Z,97009.66
2022-10-17T01:51:36.006Z,97011.00
2022-10-17T01:54:05.264Z,97007.53
2022-10-17T01:56:32.823Z,97001.75
2022-10-17T01:59:02.680Z,97001.25
2022-10-17T02:01:30.979Z,96997.97
2022-10-17T02:03:58.924Z,97000.25
2022-10-17T02:06:25.480Z,97002.75
2022-10-17T02:08:52.115Z,96997.97
2022-10-17T02:11:19.806Z,97002.41
2022-10-17T02:13:49.182Z,97006.53
2022-10-17T02:16:24.765Z,97011.47
2022-10-17T02:18:51.124Z,97006.72
2022-10-17T02:21:28.462Z,97009.19
2022-10-17T02:24:07.608Z,97013.13
2022-10-17T02:26:36.799Z,97009.19
2022-10-17T02:29:09.381Z,97017.09
2022-10-17T02:31:41.793Z,97007.19
2022-10-17T02:34:11.945Z,97005.38
2022-10-17T02:36:44.564Z,97008.84
2022-10-17T02:39:11.332Z,97007.19
2022-10-17T02:41:38.611Z,97006.69
2022-10-17T02:44:05.232Z,97007.19
2022-10-17T02:46:33.641Z,97009.16
2022-10-17T02:49:06.172Z,97010.97
2022-10-17T02:51:52.595Z,97012.78
2022-10-17T02:54:21.564Z,97011.13
2022-10-17T02:56:53.158Z,97022.00
2022-10-17T02:59:22.272Z,97020.69
2022-10-17T03:01:49.681Z,97019.03
2022-10-17T03:04:16.124Z,97022.31
2022-10-17T03:06:42.770Z,97021.00
2022-10-17T03:09:09.581Z,97024.63
2022-10-17T03:11:35.972Z,97018.00
2022-10-17T03:14:02.393Z,97018.66
2022-10-17T03:16:28.803Z,97020.97
2022-10-17T03:18:55.255Z,97029.72
2022-10-17T03:21:21.656Z,97023.94
2022-10-17T03:23:48.104Z,97027.25
2022-10-17T03:26:14.491Z,97027.53
2022-10-17T03:28:40.973Z,97026.25
2022-10-17T03:31:11.126Z,97044.66
2022-10-17T03:33:37.881Z,97041.03
2022-10-17T03:36:11.414Z,97044.66
2022-10-17T03:38:38.730Z,97046.13
2022-10-17T03:41:05.450Z,97043.00
2022-10-17T03:43:32.001Z,97047.59
2022-10-17T03:45:59.101Z,97043.66
2022-10-17T03:48:25.583Z,97046.75
2022-10-17T03:50:52.052Z,97052.50
2022-10-17T03:53:18.551Z,97065.50
2022-10-17T03:55:44.928Z,97064.31
2022-10-17T03:58:11.344Z,97058.94
2022-10-17T04:00:37.747Z,97060.25
2022-10-17T04:03:04.117Z,97063.72
2022-10-17T04:05:30.497Z,97057.94
2022-10-17T04:07:58.729Z,97060.72
2022-10-17T04:10:27.432Z,97065.31
2022-10-17T04:12:53.790Z,97058.53
2022-10-17T04:15:20.302Z,97065.81
2022-10-17T04:17:48.482Z,97069.25
2022-10-17T04:20:15.045Z,97063.63
2022-10-17T04:22:41.408Z,97062.31
2022-10-17T04:25:07.941Z,97073.81
2022-10-17T04:27:34.365Z,97079.06
2022-10-17T04:30:00.720Z,97085.00
2022-10-17T04:32:27.408Z,97086.69
2022-10-17T04:34:53.979Z,97084.53
2022-10-17T04:37:20.428Z,97084.41
2022-10-17T04:39:46.867Z,97087.03
2022-10-17T04:42:13.344Z,97087.69
2022-10-17T04:44:39.794Z,97089.66
2022-10-17T04:47:06.224Z,97091.63
2022-10-17T04:49:32.716Z,97091.94
2022-10-17T04:51:59.091Z,97092.56
2022-10-17T04:54:25.475Z,97098.13
2022-10-17T04:56:51.828Z,97098.47
2022-10-17T04:59:18.172Z,97098.91
2022-10-17T05:01:44.734Z,97104.66
2022-10-17T05:04:11.089Z,97104.13
2022-10-17T05:06:37.913Z,97105.13
2022-10-17T05:09:04.338Z,97110.22
2022-10-17T05:11:30.729Z,97108.13
2022-10-17T05:13:58.751Z,97106.00
2022-10-17T05:16:25.938Z,97111.25
2022-10-17T05:18:53.674Z,97111.56
2022-10-17T05:21:20.650Z,97111.56
2022-10-17T05:23:47.142Z,97116.81
2022-10-17T05:26:13.764Z,97118.94
2022-10-17T05:28:40.559Z,97122.41
2022-10-17T05:31:07.911Z,97136.25
2022-10-17T05:33:34.677Z,97132.47
2022-10-17T05:36:01.034Z,97131.50
2022-10-17T05:38:27.762Z,97132.34
2022-10-17T05:41:00.833Z,97141.88
2022-10-17T05:43:27.519Z,97147.81
2022-10-17T05:45:53.950Z,97140.59
2022-10-17T05:48:20.481Z,97139.75
2022-10-17T05:50:46.920Z,97145.53
2022-10-17T05:53:13.289Z,97142.75
2022-10-17T05:55:39.715Z,97146.06
2022-10-17T05:58:06.085Z,97144.09
2022-10-17T06:00:32.726Z,97151.84
2022-10-17T06:02:59.246Z,97155.44
2022-10-17T06:05:25.700Z,97159.06
2022-10-17T06:07:56.009Z,97154.47
2022-10-17T06:10:24.706Z,97164.69
2022-10-17T06:12:51.161Z,97164.84
2022-10-17T06:15:17.619Z,97172.91
2022-10-17T06:17:43.987Z,97170.97
2022-10-17T06:20:10.553Z,97179.22
2022-10-17T06:22:36.907Z,97183.03
2022-10-17T06:25:03.359Z,97186.66
2022-10-17T06:27:29.734Z,97187.13
2022-10-17T06:29:56.132Z,97188.09
2022-10-17T06:32:22.560Z,97187.41
2022-10-17T06:34:49.114Z,97186.44
2022-10-17T06:37:15.465Z,97189.44
2022-10-17T06:39:41.930Z,97194.41
2022-10-17T06:42:08.338Z,97194.59
2022-10-17T06:44:34.715Z,97193.47
2022-10-17T06:47:01.219Z,97192.31
2022-10-17T06:49:27.997Z,97200.06
2022-10-17T06:51:54.722Z,97200.91
2022-10-17T06:54:21.119Z,97198.44
2022-10-17T06:56:47.479Z,97205.06
2022-10-17T06:59:15.549Z,97207.38
2022-10-17T07:01:44.617Z,97197.78
2022-10-17T07:04:13.568Z,97209.00
2022-10-17T07:06:39.976Z,97201.63
2022-10-17T07:09:07.063Z,97200.50
2022-10-17T07:11:35.063Z,97195.88
2022-10-17T07:14:01.678Z,97201.50
2022-10-17T07:16:28.227Z,97206.47
2022-10-17T07:18:54.816Z,97205.31
2022-10-17T07:21:21.609Z,97202.25
2022-10-17T07:23:47.967Z,97196.66
2022-10-17T07:26:15.758Z,97195.31
2022-10-17T07:28:43.124Z,97202.63
2022-10-17T07:31:15.019Z,97198.66
2022-10-17T07:33:41.890Z,97206.63
2022-10-17T07:36:08.365Z,97201.88
2022-10-17T07:38:34.845Z,97195.28
2022-10-17T07:41:02.329Z,97202.56
2022-10-17T07:43:29.098Z,97206.84
2022-10-17T07:45:55.591Z,97195.53
2022-10-17T07:48:22.690Z,97200.00
2022-10-17T07:50:49.405Z,97197.38
2022-10-17T07:53:15.836Z,97192.28
2022-10-17T07:55:42.640Z,97194.91
2022-10-17T07:58:09.427Z,97194.94
2022-10-17T08:00:37.089Z,97202.22
2022-10-17T08:03:04.108Z,97196.75
2022-10-17T08:05:30.933Z,97206.34
2022-10-17T08:07:57.486Z,97200.09
2022-10-17T08:10:27.906Z,97192.97
2022-10-17T08:12:54.870Z,97188.69
2022-10-17T08:15:21.330Z,97195.47
2022-10-17T08:17:47.738Z,97196.44
2022-10-17T08:20:14.400Z,97187.69
2022-10-17T08:22:41.053Z,97192.78
2022-10-17T08:25:07.986Z,97189.63
2022-10-17T08:27:34.424Z,97197.16
2022-10-17T08:30:00.807Z,97199.09
2022-10-17T08:32:28.510Z,97198.09
2022-10-17T08:34:55.722Z,97196.53
2022-10-17T08:37:22.577Z,97192.88
2022-10-17T08:39:49.053Z,97194.50
2022-10-17T08:42:35.744Z,97192.16
2022-10-17T08:45:14.738Z,97193.75
2022-10-17T08:47:43.304Z,97196.69
2022-10-17T08:50:15.823Z,97200.44
2022-10-17T08:52:48.156Z,97198.56
2022-10-17T08:55:37.831Z,97190.06
2022-10-17T08:58:17.828Z,97187.63
2022-10-17T09:00:48.266Z,97185.34
2022-10-17T09:03:14.679Z,97177.63
2022-10-17T09:06:10.230Z,97184.25
2022-10-17T09:08:45.434Z,97177.66
2022-10-17T09:11:29.761Z,97181.88
2022-10-17T09:13:59.010Z,97180.56
2022-10-17T09:16:25.469Z,97175.22
2022-10-17T09:19:10.005Z,97176.00
2022-10-17T09:21:42.177Z,97175.03
2022-10-17T09:24:25.760Z,97173.72
2022-10-17T09:26:53.314Z,97180.50
2022-10-17T09:29:23.440Z,97176.63
2022-10-17T09:32:03.809Z,97184.69
2022-10-17T09:34:31.713Z,97179.13
2022-10-17T09:36:59.689Z,97174.94
2022-10-17T09:39:26.797Z,97174.78
2022-10-17T09:41:54.396Z,97176.31
2022-10-17T09:44:22.900Z,97178.84
2022-10-17T09:47:07.908Z,97178.53
2022-10-17T09:49:35.894Z,97178.19
2022-10-17T09:52:08.944Z,97181.50
2022-10-17T09:54:43.596Z,97180.59
2022-10-17T09:57:10.795Z,97178.44
2022-10-17T09:59:37.152Z,97178.69
2022-10-17T10:02:09.760Z,97177.13
2022-10-17T10:04:41.572Z,97177.16
2022-10-17T10:07:28.294Z,97178.50
2022-10-17T10:09:56.035Z,97179.72
2022-10-17T10:12:30.716Z,97179.78
2022-10-17T10:14:57.953Z,97169.13
2022-10-17T10:17:26.762Z,97180.22
2022-10-17T10:19:53.603Z,97176.31
2022-10-17T10:22:23.642Z,97179.38
2022-10-17T10:25:08.644Z,97181.84
2022-10-17T10:27:35.542Z,97181.19
2022-10-17T10:30:02.616Z,97176.88
2022-10-17T10:32:31.857Z,97169.50
2022-10-17T10:35:20.882Z,97173.16
2022-10-17T10:37:52.020Z,97166.56
2022-10-17T10:40:18.633Z,97164.25
2022-10-17T10:42:50.290Z,97161.56
2022-10-17T10:45:48.134Z,97168.25
2022-10-17T10:48:34.176Z,97156.69
2022-10-17T10:51:02.421Z,97156.44
2022-10-17T10:53:35.574Z,97156.41
2022-10-17T10:56:11.852Z,97154.09
2022-10-17T10:58:47.349Z,97158.59
2022-10-17T11:01:25.871Z,97151.81
2022-10-17T11:04:07.007Z,97150.09
2022-10-17T11:06:37.794Z,97151.75
2022-10-17T11:09:22.689Z,97152.31
2022-10-17T11:11:54.717Z,97146.53
2022-10-17T11:14:36.356Z,97145.41
2022-10-17T11:17:13.188Z,97155.31
2022-10-17T11:19:58.452Z,97143.72
2022-10-17T11:22:31.264Z,97143.09
2022-10-17T11:25:06.213Z,97145.09
2022-10-17T11:27:34.085Z,97141.56
2022-10-17T11:30:00.585Z,97149.53
2022-10-17T11:32:31.784Z,97135.50
2022-10-17T11:35:03.128Z,97139.81
2022-10-17T11:37:31.678Z,97143.56
2022-10-17T11:40:01.002Z,97136.13
2022-10-17T11:42:31.382Z,97133.59
2022-10-17T11:45:01.432Z,97136.44
2022-10-17T11:47:36.580Z,97136.81
2022-10-17T11:53:16.130Z,97131.63
2022-10-17T11:55:43.266Z,97133.84
2022-10-17T11:58:22.119Z,97132.78
2022-10-17T12:00:58.343Z,97132.16
2022-10-17T12:03:24.711Z,97134.53
2022-10-17T12:06:08.380Z,97132.81
2022-10-17T12:08:44.984Z,97130.53
2022-10-17T12:11:20.602Z,97129.91
2022-10-17T12:13:48.019Z,97132.00
2022-10-17T12:16:20.273Z,97141.97
2022-10-17T12:18:48.114Z,97143.59
2022-10-17T12:21:14.713Z,97141.50
2022-10-17T12:23:41.450Z,97136.75
2022-10-17T12:26:09.490Z,97135.72
2022-10-17T12:28:46.597Z,97133.78
2022-10-17T12:31:15.824Z,97134.81
2022-10-17T12:33:49.463Z,97136.53
2022-10-17T12:36:18.638Z,97130.72
2022-10-17T12:38:49.920Z,97131.09
2022-10-17T12:41:17.069Z,97131.91
2022-10-17T12:46:36.916Z,97128.56
2022-10-17T12:49:04.688Z,97128.56
2022-10-17T12:51:51.016Z,97137.19
2022-10-17T12:54:17.607Z,97134.75
2022-10-17T12:56:49.395Z,97138.03
2022-10-17T12:59:26.042Z,97131.69
2022-10-17T13:01:55.310Z,97137.88
2022-10-17T13:04:22.094Z,97127.38
2022-10-17T13:06:50.986Z,97133.78
2022-10-17T13:09:33.216Z,97125.34
2022-10-17T13:12:02.000Z,97130.53
2022-10-17T13:14:28.681Z,97131.31
2022-10-17T13:17:02.544Z,97128.88
2022-10-17T13:19:30.922Z,97133.19
2022-10-17T13:22:06.028Z,97123.50
2022-10-17T13:24:33.108Z,97132.00
2022-10-17T13:26:59.977Z,97128.94
2022-10-17T13:29:28.717Z,97124.03
2022-10-17T13:31:56.698Z,97126.72
2022-10-17T13:34:24.506Z,97129.00
2022-10-17T13:36:53.368Z,97122.00
2022-10-17T13:39:32.377Z,97124.69
2022-10-17T13:42:18.476Z,97126.34
2022-10-17T13:44:45.935Z,97129.25
2022-10-17T13:47:25.711Z,97125.13
2022-10-17T13:49:55.162Z,97129.88
2022-10-17T13:52:23.433Z,97121.13
2022-10-17T13:54:51.234Z,97117.69
2022-10-17T13:57:22.882Z,97120.38
2022-10-17T13:59:50.701Z,97118.31
2022-10-17T14:02:19.104Z,97121.00
2022-10-17T14:05:15.105Z,97122.50
2022-10-17T14:08:12.114Z,97126.28
2022-10-17T14:10:38.522Z,97128.34
2022-10-17T14:13:08.157Z,97125.09
2022-10-17T14:15:35.810Z,97124.91
2022-10-17T14:18:07.540Z,97122.84
2022-10-17T14:21:19.465Z,97128.03
2022-10-17T14:23:30.658Z,97132.16
2022-10-17T14:26:14.402Z,97123.53
2022-10-17T14:28:42.331Z,97125.00
2022-10-17T14:31:21.016Z,97128.94
2022-10-17T14:33:50.877Z,97128.38
2022-10-17T14:36:18.049Z,97139.66
2022-10-17T14:38:46.150Z,97135.22
2022-10-17T14:44:07.383Z,97139.34
2022-10-17T14:46:37.748Z,97127.84
2022-10-17T14:49:08.555Z,97136.09
2022-10-17T14:51:44.777Z,97143.50
2022-10-17T14:54:29.803Z,97143.94
2022-10-17T14:56:56.417Z,97131.19
2022-10-17T14:59:52.208Z,97140.09
2022-10-17T15:02:12.013Z,97148.97
2022-10-17T15:04:38.370Z,97142.00
2022-10-17T15:07:04.978Z,97141.22
2022-10-17T15:09:31.740Z,97141.66
2022-10-17T15:12:05.342Z,97144.75
2022-10-17T15:14:31.894Z,97154.94
2022-10-17T15:16:58.362Z,97151.88
2022-10-17T15:19:24.728Z,97144.94
2022-10-17T15:21:51.127Z,97148.03
2022-10-17T15:24:17.517Z,97148.91
2022-10-17T15:26:44.048Z,97148.94
2022-10-17T15:29:14.615Z,97150.78
2022-10-17T15:31:41.655Z,97145.25
2022-10-17T15:34:08.124Z,97148.13
2022-10-17T15:36:38.899Z,97159.25
2022-10-17T15:39:05.415Z,97147.75
2022-10-17T15:41:32.694Z,97159.28
2022-10-17T15:43:59.528Z,97161.13
2022-10-17T15:46:30.474Z,97150.66
2022-10-17T15:49:01.173Z,97156.00
2022-10-17T15:51:27.536Z,97158.47
2022-10-17T15:53:53.938Z,97156.84
2022-10-17T15:56:28.670Z,97164.84
2022-10-17T15:58:55.246Z,97166.66
2022-10-17T16:01:23.672Z,97160.47
2022-10-17T16:03:50.733Z,97162.09
2022-10-17T16:06:18.356Z,97166.81
2022-10-17T16:08:45.518Z,97162.50
2022-10-17T16:11:20.676Z,97167.00
2022-10-17T16:13:50.318Z,97169.03
2022-10-17T16:16:16.779Z,97171.47
2022-10-17T16:18:43.186Z,97162.00
2022-10-17T16:21:12.728Z,97168.16
2022-10-17T16:23:39.209Z,97170.97
2022-10-17T16:26:05.681Z,97164.00
2022-10-17T16:28:32.115Z,97167.63
2022-10-17T16:30:58.577Z,97173.78
2022-10-17T16:33:24.961Z,97172.50
2022-10-17T16:35:51.614Z,97178.63
2022-10-17T16:38:17.970Z,97183.09
2022-10-17T16:40:44.431Z,97181.22
2022-10-17T16:43:12.135Z,97183.00
2022-10-17T16:45:38.604Z,97180.28
2022-10-17T16:48:05.166Z,97183.94
2022-10-17T16:50:35.364Z,97183.06
2022-10-17T16:53:03.871Z,97181.56
2022-10-17T16:55:30.246Z,97177.03
2022-10-17T16:57:56.865Z,97177.78
2022-10-17T17:00:23.272Z,97179.59
2022-10-17T17:02:49.705Z,97180.75
2022-10-17T17:05:16.171Z,97184.53
2022-10-17T17:07:42.702Z,97189.81
2022-10-17T17:10:09.219Z,97184.81
2022-10-17T17:12:36.283Z,97192.53
2022-10-17T17:15:03.549Z,97189.00
2022-10-17T17:17:44.579Z,97192.03
2022-10-17T17:20:14.738Z,97191.16
2022-10-17T17:22:41.086Z,97188.25
2022-10-17T17:25:07.706Z,97196.16
2022-10-17T17:27:34.134Z,97189.34
2022-10-17T17:30:00.540Z,97190.56
2022-10-17T17:32:27.263Z,97195.06
2022-10-17T17:34:54.496Z,97188.47
2022-10-17T17:37:20.856Z,97183.91
2022-10-17T17:39:47.210Z,97181.56
2022-10-17T17:42:13.617Z,97183.97
2022-10-17T17:44:40.060Z,97187.38
2022-10-17T17:47:06.434Z,97188.94
2022-10-17T17:49:32.813Z,97189.69
2022-10-17T17:51:59.256Z,97186.78
2022-10-17T17:54:25.682Z,97194.47
2022-10-17T17:56:52.233Z,97188.06
2022-10-17T17:59:18.612Z,97184.97
2022-10-17T18:01:45.089Z,97189.53
2022-10-17T18:04:11.714Z,97187.63
2022-10-17T18:06:38.530Z,97186.34
2022-10-17T18:09:05.959Z,97189.38
2022-10-17T18:11:32.736Z,97182.78
2022-10-17T18:14:00.335Z,97184.16
2022-10-17T18:16:27.495Z,97181.22
2022-10-17T18:18:54.399Z,97184.41
2022-10-17T18:21:20.768Z,97175.34
2022-10-17T18:23:47.879Z,97183.88
2022-10-17T18:26:14.935Z,97187.72
2022-10-17T18:31:24.254Z,97181.69
2022-10-17T18:33:51.542Z,97178.28
2022-10-17T18:36:18.123Z,97183.31
2022-10-17T18:38:44.547Z,97184.66
2022-10-17T18:41:15.419Z,97174.06
2022-10-17T18:43:42.866Z,97174.06
2022-10-17T18:46:13.905Z,97173.41
2022-10-17T18:48:42.322Z,97170.28
2022-10-17T18:51:08.769Z,97179.44
2022-10-17T18:53:35.140Z,97175.00
2022-10-17T18:56:03.384Z,97175.19
2022-10-17T18:58:29.968Z,97181.84
2022-10-17T19:01:01.436Z,97180.22
2022-10-17T19:03:27.776Z,97173.16
2022-10-17T19:05:56.655Z,97169.38
2022-10-17T19:08:25.485Z,97170.72
2022-10-17T19:10:51.894Z,97170.25
2022-10-17T19:13:21.521Z,97180.00
2022-10-17T19:15:48.361Z,97170.97
2022-10-17T19:18:14.817Z,97176.78
2022-10-17T19:20:41.219Z,97176.47
2022-10-17T19:23:07.604Z,97170.72
2022-10-17T19:25:34.075Z,97175.22
2022-10-17T19:28:00.539Z,97175.34
2022-10-17T19:30:26.971Z,97182.22
2022-10-17T19:32:53.361Z,97178.06
2022-10-17T19:35:19.805Z,97177.59
2022-10-17T19:37:46.163Z,97179.94
2022-10-17T19:40:12.789Z,97179.75
2022-10-17T19:42:39.301Z,97178.66
2022-10-17T19:45:06.089Z,97185.31
2022-10-17T19:47:32.765Z,97187.66
2022-10-17T19:49:59.197Z,97184.34
2022-10-17T19:52:25.746Z,97195.28
2022-10-17T19:54:52.103Z,97190.84
2022-10-17T19:57:18.529Z,97193.00
2022-10-17T19:59:44.957Z,97200.16
2022-10-17T20:02:12.925Z,97199.66
2022-10-17T20:04:49.602Z,97200.81
2022-10-17T20:07:25.726Z,97201.53
2022-10-17T20:09:52.127Z,97200.69
2022-10-17T20:12:18.510Z,97190.47
2022-10-17T20:14:44.894Z,97196.09
2022-10-17T20:17:11.277Z,97189.13
2022-10-17T20:19:37.634Z,97189.78
2022-10-17T20:22:04.398Z,97200.56
2022-10-17T20:24:30.846Z,97203.72
2022-10-17T20:26:57.240Z,97199.09
2022-10-17T20:29:24.112Z,97198.28
2022-10-17T20:31:50.717Z,97201.94
2022-10-17T20:34:18.055Z,97198.78
2022-10-17T20:36:44.521Z,97203.41
2022-10-17T20:39:12.282Z,97195.31
2022-10-17T20:41:39.066Z,97199.13
2022-10-17T20:44:06.981Z,97203.59
2022-10-17T20:46:38.333Z,97197.50
2022-10-17T20:49:08.707Z,97191.88
2022-10-17T20:51:35.768Z,97201.66
2022-10-17T20:54:03.040Z,97197.50
2022-10-17T20:56:30.649Z,97203.13
2022-10-17T20:59:01.429Z,97202.47
2022-10-17T21:01:28.436Z,97196.53
2022-10-17T21:03:55.228Z,97200.88
2022-10-17T21:06:22.434Z,97190.63
2022-10-17T21:08:49.449Z,97188.97
2022-10-17T21:11:19.978Z,97187.66
2022-10-17T21:13:47.063Z,97189.97
2022-10-17T21:16:15.204Z,97185.88
2022-10-17T21:18:42.224Z,97182.91
2022-10-17T21:21:08.677Z,97180.44
2022-10-17T21:23:35.066Z,97186.34
2022-10-17T21:26:01.532Z,97183.72
2022-10-17T21:28:27.935Z,97178.75
2022-10-17T21:30:54.317Z,97176.13
2022-10-17T21:33:20.700Z,97173.66
2022-10-17T21:35:47.067Z,97181.41
2022-10-17T21:38:13.444Z,97180.44
2022-10-17T21:40:39.811Z,97180.75
2022-10-17T21:43:06.187Z,97180.25
2022-10-17T21:45:35.422Z,97173.50
2022-10-17T21:48:12.575Z,97172.84
2022-10-17T21:50:39.536Z,97174.97
2022-10-17T21:53:05.908Z,97178.81
2022-10-17T21:55:32.304Z,97173.81
2022-10-17T21:57:58.723Z,97170.06
2022-10-17T22:00:25.087Z,97169.38
2022-10-17T22:02:51.516Z,97174.81
2022-10-17T22:05:17.890Z,97170.19
2022-10-17T22:07:44.251Z,97161.78
2022-10-17T22:10:10.596Z,97164.56
2022-10-17T22:12:37.031Z,97161.59
2022-10-17T22:15:03.776Z,97166.25
2022-10-17T22:17:30.483Z,97159.97
2022-10-17T22:19:57.036Z,97163.59
2022-10-17T22:22:23.407Z,97155.00
2022-10-17T22:24:49.760Z,97155.66
2022-10-17T22:27:16.212Z,97157.66
2022-10-17T22:29:42.586Z,97159.47
2022-10-17T22:32:08.988Z,97151.56
2022-10-17T22:34:35.371Z,97148.75
2022-10-17T22:37:01.769Z,97140.97
2022-10-17T22:39:28.186Z,97142.13
2022-10-17T22:41:54.563Z,97148.59
2022-10-17T22:44:20.939Z,97144.28
2022-10-17T22:46:47.374Z,97143.13
2022-10-17T22:49:13.829Z,97154.69
2022-10-17T22:51:40.226Z,97147.25
2022-10-17T22:54:06.991Z,97154.69
2022-10-17T22:56:33.433Z,97152.38
2022-10-17T22:58:59.798Z,97156.31
2022-10-17T23:01:26.287Z,97153.03
2022-10-17T23:03:52.721Z,97154.34
2022-10-17T23:06:19.686Z,97151.22
2022-10-17T23:08:46.061Z,97157.31
2022-10-17T23:11:12.899Z,97145.94
2022-10-17T23:13:40.786Z,97149.56
2022-10-17T23:16:07.895Z,97141.00
2022-10-17T23:18:34.276Z,97140.16
2022-10-17T23:21:00.719Z,97140.16
2022-10-17T23:23:27.225Z,97127.28
2022-10-17T23:25:53.625Z,97126.78
2022-10-17T23:28:20.367Z,97128.09
2022-10-17T23:30:46.810Z,97120.34
2022-10-17T23:33:13.916Z,97125.63
2022-10-17T23:35:40.538Z,97115.22
2022-10-17T23:38:06.993Z,97117.38
2022-10-17T23:40:34.824Z,97111.59
2022-10-17T23:43:01.423Z,97105.47
2022-10-17T23:45:27.840Z,97107.16
2022-10-17T23:47:54.232Z,97108.78
2022-10-17T23:50:20.615Z,97105.47
2022-10-17T23:52:47.022Z,97105.81
2022-10-17T23:55:13.402Z,97103.69
2022-10-17T23:57:39.860Z,97104.00
